Time;durP1;ratioP1;P1;durP2;ratioP2;P2;SDS_P1;SDS_P2;PMS_P1;PMS_P2;Temp;Humidity;BMP_temperature;BMP_pressure;BME280_temperature;BME280_humidity;BME280_pressure;Samples;Min_cycle;Max_cycle;Signal;HPM_P1;HPM_P2
2022/05/18 00:00:08;;;;;;;9.28;5.00;;;;;;;10.56;100.00;100279.89;1804029;79;21965;-91
2022/05/18 00:02:37;;;;;;;8.15;4.22;;;;;;;10.56;100.00;100282.49;1803741;79;21062;-92
2022/05/18 00:05:05;;;;;;;7.97;3.67;;;;;;;10.54;100.00;100284.38;1804222;79;21456;-90
2022/05/18 00:07:33;;;;;;;7.08;4.10;;;;;;;10.53;100.00;100285.36;1804102;79;21560;-84
2022/05/18 00:10:01;;;;;;;6.25;4.08;;;;;;;10.53;100.00;100282.77;1804067;79;21092;-85
2022/05/18 00:12:28;;;;;;;6.22;3.85;;;;;;;10.54;100.00;100278.72;1804575;79;21496;-84
2022/05/18 00:14:56;;;;;;;6.67;3.85;;;;;;;10.55;100.00;100275.63;1804324;79;21570;-85
2022/05/18 00:17:24;;;;;;;7.35;3.50;;;;;;;10.56;100.00;100287.70;1805260;79;21030;-91
2022/05/18 00:19:51;;;;;;;6.97;3.50;;;;;;;10.58;100.00;100283.20;1813347;78;21084;-87
2022/05/18 00:22:18;;;;;;;5.72;3.27;;;;;;;10.61;100.00;100284.73;1813260;78;21026;-88
2022/05/18 00:24:45;;;;;;;5.40;3.65;;;;;;;10.59;100.00;100279.66;1813453;78;21760;-87
2022/05/18 00:27:12;;;;;;;4.97;3.60;;;;;;;10.58;100.00;100280.60;1813142;78;21034;-85
2022/05/18 00:29:40;;;;;;;4.47;3.27;;;;;;;10.57;100.00;100281.55;1813149;78;21017;-88
2022/05/18 00:32:08;;;;;;;5.00;3.55;;;;;;;10.54;100.00;100287.83;1813293;78;21601;-88
2022/05/18 00:34:35;;;;;;;4.37;3.02;;;;;;;10.51;100.00;100285.95;1813258;78;21045;-86
2022/05/18 00:37:03;;;;;;;8.78;3.42;;;;;;;10.50;100.00;100280.39;1813057;78;21287;-85
2022/05/18 00:39:31;;;;;;;8.20;3.40;;;;;;;10.49;100.00;100277.43;1812914;78;21007;-86
2022/05/18 00:41:58;;;;;;;6.20;3.30;;;;;;;10.51;100.00;100281.56;1813242;78;21069;-86
2022/05/18 00:44:25;;;;;;;6.40;3.00;;;;;;;10.51;100.00;100282.05;1813314;78;21084;-89
2022/05/18 00:46:53;;;;;;;5.85;2.60;;;;;;;10.48;100.00;100284.42;1813325;78;21085;-87
2022/05/18 00:49:20;;;;;;;3.85;2.62;;;;;;;10.45;100.00;100284.66;1813462;78;21156;-85
2022/05/18 00:51:53;;;;;;;5.30;3.00;;;;;;;10.44;100.00;100270.48;1813110;78;20998;-85
2022/05/18 00:54:24;;;;;;;4.08;2.77;;;;;;;10.47;100.00;100272.81;1813474;78;21037;-85
2022/05/18 00:57:00;;;;;;;5.90;2.60;;;;;;;10.49;100.00;100277.43;1781758;79;21118;-85
2022/05/18 00:59:34;;;;;;;5.50;2.52;;;;;;;10.51;100.00;100275.54;1809449;78;21057;-87
2022/05/18 01:02:05;;;;;;;5.40;2.60;;;;;;;10.53;100.00;100283.57;1812943;78;20978;-85
2022/05/18 01:04:34;;;;;;;4.22;2.40;;;;;;;10.50;100.00;100287.71;1813330;78;21566;-87
2022/05/18 01:07:06;;;;;;;4.17;2.90;;;;;;;10.46;100.00;100286.32;1813043;78;21025;-85
2022/05/18 01:09:41;;;;;;;4.55;2.47;;;;;;;10.39;100.00;100281.25;1808845;79;21721;-88
2022/05/18 01:12:13;;;;;;;3.42;2.62;;;;;;;10.32;100.00;100283.47;1813201;78;21084;-88
2022/05/18 01:14:54;;;;;;;4.37;2.67;;;;;;;10.28;100.00;100275.57;1813243;78;21236;-89
2022/05/18 01:17:26;;;;;;;4.40;2.70;;;;;;;10.26;100.00;100281.36;1810089;78;21030;-88
2022/05/18 01:19:54;;;;;;;;;;;;;;;10.26;100.00;100278.77;1817709;78;21630;-88
2022/05/18 01:22:47;;;;;;;4.62;2.62;;;;;;;10.27;100.00;100277.81;1814728;79;20172;-86
2022/05/18 01:25:39;;;;;;;3.80;2.20;;;;;;;10.31;100.00;100277.09;1815182;78;21065;-87
2022/05/18 01:28:07;;;;;;;4.00;2.70;;;;;;;10.32;100.00;100266.56;1815128;78;21120;-90
2022/05/18 01:30:42;;;;;;;4.22;2.75;;;;;;;10.33;100.00;100269.52;1814907;78;21045;-86
2022/05/18 01:33:10;;;;;;;3.83;2.17;;;;;;;10.32;100.00;100270.46;1807993;79;21547;-86
2022/05/18 01:35:41;;;;;;;6.78;2.50;;;;;;;10.29;100.00;100272.03;1815353;78;20990;-86
2022/05/18 01:38:12;;;;;;;3.90;2.52;;;;;;;10.26;100.00;100280.87;1815427;79;26617;-86
2022/05/18 01:40:50;;;;;;;3.50;2.40;;;;;;;10.22;100.00;100283.38;1815373;79;21660;-86
2022/05/18 01:43:25;;;;;;;3.95;2.70;;;;;;;10.22;100.00;100281.23;1810604;79;21053;-87
2022/05/18 01:45:59;;;;;;;3.02;2.37;;;;;;;10.23;100.00;100277.69;1814151;79;21018;-87
2022/05/18 01:48:35;;;;;;;2.77;2.10;;;;;;;10.28;100.00;100284.69;1815082;78;22241;-86
2022/05/18 01:51:05;;;;;;;3.52;2.55;;;;;;;10.32;100.00;100286.56;1815187;79;21080;-86
2022/05/18 01:53:34;;;;;;;3.72;2.52;;;;;;;10.34;100.00;100292.00;1815362;79;21874;-87
2022/05/18 01:56:04;;;;;;;5.03;2.42;;;;;;;10.32;100.00;100288.68;1814686;79;21128;-87
2022/05/18 01:58:32;;;;;;;4.05;2.62;;;;;;;10.31;100.00;100290.92;1815214;78;21233;-86
2022/05/18 02:01:02;;;;;;;4.15;2.35;;;;;;;10.31;100.00;100292.23;1815012;78;21002;-88
2022/05/18 02:03:32;;;;;;;4.30;2.50;;;;;;;10.33;100.00;100296.03;1780720;79;38272;-86
2022/05/18 02:06:00;;;;;;;3.95;2.62;;;;;;;10.34;100.00;100294.59;1815193;78;21130;-89
2022/05/18 02:08:27;;;;;;;3.35;2.62;;;;;;;10.34;100.00;100297.20;1815088;78;20962;-88
2022/05/18 02:10:55;;;;;;;4.60;2.33;;;;;;;10.36;100.00;100296.61;1815056;79;21085;-90
2022/05/18 02:13:24;;;;;;;3.10;2.30;;;;;;;10.39;100.00;100296.38;1815141;78;21030;-89
2022/05/18 02:15:52;;;;;;;5.60;2.35;;;;;;;10.45;100.00;100286.45;1815063;79;21270;-88
2022/05/18 02:18:19;;;;;;;5.40;2.37;;;;;;;10.51;100.00;100293.77;1812990;78;21503;-89
2022/05/18 02:20:46;;;;;;;3.30;2.50;;;;;;;10.55;100.00;100289.95;1813291;79;21609;-87
2022/05/18 02:23:13;;;;;;;4.05;2.27;;;;;;;10.57;100.00;100294.11;1813267;78;21017;-87
2022/05/18 02:25:41;;;;;;;3.02;2.42;;;;;;;10.60;100.00;100294.79;1813230;78;21539;-88
2022/05/18 02:28:08;;;;;;;4.50;2.45;;;;;;;10.58;100.00;100286.62;1813339;78;21061;-88
2022/05/18 02:30:35;;;;;;;2.95;2.50;;;;;;;10.58;100.00;100284.02;1812954;78;21299;-89
2022/05/18 02:33:03;;;;;;;3.92;2.22;;;;;;;10.58;100.00;100288.41;1813180;78;21014;-86
2022/05/18 02:35:30;;;;;;;2.70;2.17;;;;;;;10.60;100.00;100293.48;1812914;78;21026;-90
2022/05/18 02:37:57;;;;;;;2.80;2.50;;;;;;;10.54;100.00;100292.20;1813407;78;21030;-87
2022/05/18 02:40:25;;;;;;;4.10;2.40;;;;;;;10.49;100.00;100299.56;1812989;78;21002;-87
2022/05/18 02:42:52;;;;;;;4.80;2.17;;;;;;;10.43;100.00;100297.45;1813051;78;21208;-86
2022/05/18 02:45:19;;;;;;;3.45;2.02;;;;;;;10.39;100.00;100299.47;1812967;78;20919;-87
2022/05/18 02:47:46;;;;;;;2.30;2.10;;;;;;;10.37;100.00;100302.66;1813238;78;21112;-86
2022/05/18 02:50:13;;;;;;;2.45;2.10;;;;;;;10.34;100.00;100297.20;1812990;78;21509;-86
2022/05/18 02:52:41;;;;;;;2.12;1.90;;;;;;;10.33;100.00;100303.34;1813308;78;21080;-89
2022/05/18 02:57:55;;;;;;;2.58;2.10;;;;;;;10.34;100.00;100302.41;1813083;79;21085;-88
2022/05/18 03:00:22;;;;;;;4.87;2.17;;;;;;;10.33;100.00;100300.75;1813198;78;21452;-86
2022/05/18 03:02:50;;;;;;;3.33;2.17;;;;;;;10.31;100.00;100301.34;1813599;78;21065;-88
2022/05/18 03:05:17;;;;;;;3.05;2.27;;;;;;;10.34;100.00;100307.61;1813270;78;21246;-85
2022/05/18 03:07:44;;;;;;;3.55;2.02;;;;;;;10.40;100.00;100303.73;1813517;78;21113;-85
2022/05/18 03:10:15;;;;;;;2.70;2.00;;;;;;;10.40;100.00;100307.16;1812844;78;21045;-86
2022/05/18 03:12:42;;;;;;;2.15;1.92;;;;;;;10.35;100.00;100305.36;1809085;78;20998;-86
2022/05/18 03:15:12;;;;;;;4.30;2.10;;;;;;;10.29;100.00;100303.71;1813260;78;21464;-86
2022/05/18 03:17:39;;;;;;;3.77;2.05;;;;;;;10.28;100.00;100307.26;1813584;78;21096;-87
2022/05/18 03:20:08;;;;;;;2.27;2.02;;;;;;;10.25;100.00;100313.53;1813183;78;21791;-89
2022/05/18 03:25:23;;;;;;;4.17;2.30;;;;;;;10.16;100.00;100323.36;1813193;78;21073;-88
2022/05/18 03:27:50;;;;;;;2.60;1.80;;;;;;;10.11;100.00;100321.11;1813251;78;20998;-88
2022/05/18 03:30:17;;;;;;;5.58;2.22;;;;;;;10.09;100.00;100324.33;1813273;78;21002;-87
2022/05/18 03:32:45;;;;;;;3.90;2.08;;;;;;;10.04;100.00;100328.59;1813276;78;21169;-87
2022/05/18 03:35:12;;;;;;;2.87;2.00;;;;;;;10.03;100.00;100333.89;1812999;78;21066;-88
2022/05/18 03:37:39;;;;;;;4.28;2.42;;;;;;;10.01;100.00;100337.92;1813566;78;21104;-86
2022/05/18 03:40:10;;;;;;;4.80;3.02;;;;;;;10.00;100.00;100340.65;1813123;78;21030;-87
2022/05/18 03:42:37;;;;;;;4.85;3.72;;;;;;;9.99;100.00;100342.41;1813387;78;22142;-86
2022/05/18 03:45:06;;;;;;;3.90;3.08;;;;;;;9.98;100.00;100341.23;1813193;78;21134;-84
2022/05/18 03:47:33;;;;;;;3.10;2.30;;;;;;;9.98;100.00;100340.75;1813186;78;20986;-86
2022/05/18 03:50:00;;;;;;;5.83;2.40;;;;;;;9.99;100.00;100337.20;1813065;78;21621;-89
2022/05/18 03:52:27;;;;;;;3.27;2.25;;;;;;;9.99;100.00;100333.30;1813183;78;21030;-89
2022/05/18 03:54:54;;;;;;;4.25;1.95;;;;;;;10.03;100.00;100342.99;1813130;78;21037;-89
2022/05/18 03:57:22;;;;;;;2.20;2.00;;;;;;;10.05;100.00;100345.86;1813618;78;21083;-88
2022/05/18 03:59:50;;;;;;;2.58;2.02;;;;;;;10.08;100.00;100343.48;1813105;79;21140;-88
2022/05/18 04:02:17;;;;;;;4.28;1.90;;;;;;;10.12;100.00;100347.49;1813569;78;21657;-87
2022/05/18 04:04:46;;;;;;;2.30;2.10;;;;;;;10.12;100.00;100353.99;1812993;78;21010;-86
2022/05/18 04:07:13;;;;;;;2.67;2.02;;;;;;;10.13;100.00;100356.14;1813461;78;21009;-86
2022/05/18 04:09:40;;;;;;;3.65;1.80;;;;;;;10.16;100.00;100355.88;1813345;79;21164;-87
2022/05/18 04:12:09;;;;;;;4.00;2.00;;;;;;;10.18;100.00;100365.22;1813208;79;20998;-87
2022/05/18 04:14:37;;;;;;;3.35;2.20;;;;;;;10.21;100.00;100374.59;1813020;78;21060;-87
2022/05/18 04:17:04;;;;;;;4.10;2.37;;;;;;;10.23;100.00;100377.88;1813576;78;20974;-88
2022/05/18 04:19:31;;;;;;;5.33;1.98;;;;;;;10.28;100.00;100384.03;1811699;78;21209;-87
2022/05/18 04:21:59;;;;;;;3.45;2.02;;;;;;;10.34;100.00;100381.78;1804179;79;21789;-86
2022/05/18 04:24:26;;;;;;;3.75;2.25;;;;;;;10.41;100.00;100385.59;1804050;79;21027;-87
2022/05/18 04:26:54;;;;;;;4.78;2.25;;;;;;;10.49;100.00;100390.67;1804090;79;21124;-88
2022/05/18 04:29:21;;;;;;;3.60;2.22;;;;;;;10.56;100.00;100391.84;1804331;79;21539;-87
2022/05/18 04:31:49;;;;;;;4.42;1.90;;;;;;;10.64;100.00;100390.77;1804378;79;21041;-87
2022/05/18 04:34:17;;;;;;;2.87;2.08;;;;;;;10.75;100.00;100399.03;1803977;79;21926;-91
2022/05/18 04:36:45;;;;;;;2.30;2.10;;;;;;;10.85;100.00;100404.35;1803950;78;21109;-90
2022/05/18 04:39:12;;;;;;;3.95;2.27;;;;;;;10.94;100.00;100409.29;1804161;78;21010;-92
2022/05/18 04:41:39;;;;;;;2.42;2.00;;;;;;;11.01;100.00;100412.59;1804334;78;21073;-91
2022/05/18 04:44:06;;;;;;;3.33;1.90;;;;;;;11.08;100.00;100415.52;1804134;78;21022;-90
2022/05/18 04:46:58;;;;;;;2.98;1.87;;;;;;;11.15;100.00;100414.06;1775090;79;21199;-92
2022/05/18 04:49:29;;;;;;;5.78;2.15;;;;;;;11.23;100.00;100421.73;1772502;80;21141;-89
2022/05/18 04:51:57;;;;;;;2.83;2.10;;;;;;;11.30;100.00;100420.28;1772718;80;21017;-90
2022/05/18 04:54:24;;;;;;;2.92;2.12;;;;;;;11.34;100.00;100427.73;1798763;78;21085;-91
2022/05/18 04:56:52;;;;;;;2.45;2.20;;;;;;;11.38;100.00;100424.40;1804071;79;21117;-89
2022/05/18 04:59:19;;;;;;;3.50;2.30;;;;;;;11.42;100.00;100418.00;1804082;79;21513;-90
2022/05/18 05:01:46;;;;;;;3.05;2.58;;;;;;;11.48;100.00;100416.67;1804502;79;21026;-89
2022/05/18 05:04:14;;;;;;;2.30;2.10;;;;;;;11.53;100.00;100414.50;1804528;79;20975;-89
2022/05/18 05:06:43;;;;;;;4.20;2.40;;;;;;;11.58;100.00;100413.64;1804433;79;21042;-89
2022/05/18 05:09:11;;;;;;;4.17;2.80;;;;;;;11.63;100.00;100410.19;1799226;79;21058;-91
2022/05/18 05:11:40;;;;;;;2.90;2.35;;;;;;;11.70;100.00;100407.06;1732195;82;21818;-88
2022/05/18 05:14:07;;;;;;;3.00;2.30;;;;;;;11.73;100.00;100402.91;1735317;82;20928;-89
2022/05/18 05:16:35;;;;;;;2.58;2.00;;;;;;;11.74;100.00;100407.98;1731769;82;21071;-86
2022/05/18 05:19:02;;;;;;;3.42;2.65;;;;;;;11.73;100.00;100405.52;1735015;82;21638;-86
2022/05/18 05:21:30;;;;;;;3.60;2.85;;;;;;;11.66;100.00;100408.61;1731862;82;21039;-89
2022/05/18 05:23:57;;;;;;;2.67;2.20;;;;;;;11.60;100.00;100409.13;1735647;82;21415;-88
2022/05/18 05:26:24;;;;;;;3.95;2.40;;;;;;;11.56;100.00;100407.75;1732166;82;21496;-87
2022/05/18 05:28:52;;;;;;;3.83;2.90;;;;;;;11.51;100.00;100408.12;1735418;82;21038;-89
2022/05/18 05:31:19;;;;;;;3.10;2.50;;;;;;;11.49;100.00;100406.60;1732173;82;21699;-87
2022/05/18 05:33:47;;;;;;;4.35;2.98;;;;;;;11.46;100.00;100406.35;1738038;82;21050;-88
2022/05/18 05:36:14;;;;;;;3.52;2.22;;;;;;;11.46;100.00;100408.95;1739179;81;21810;-90
2022/05/18 05:38:41;;;;;;;4.58;2.70;;;;;;;11.45;100.00;100404.72;1741207;82;21078;-89
2022/05/18 05:41:08;;;;;;;3.22;2.50;;;;;;;11.41;100.00;100407.70;1741277;82;21081;-90
2022/05/18 05:43:36;;;;;;;5.10;2.58;;;;;;;11.35;100.00;100414.24;1740964;82;21050;-89
2022/05/18 05:46:10;;;;;;;4.90;3.02;;;;;;;11.31;100.00;100411.06;1741144;82;21065;-91
2022/05/18 05:48:37;;;;;;;4.10;3.10;;;;;;;11.30;100.00;100414.62;1740996;82;21610;-89
2022/05/18 05:51:05;;;;;;;5.22;3.08;;;;;;;11.33;100.00;100407.86;1733601;82;21098;-86
2022/05/18 05:53:33;;;;;;;4.65;3.00;;;;;;;11.41;100.00;100403.80;1763773;81;22365;-86
2022/05/18 05:56:00;;;;;;;7.62;3.35;;;;;;;11.46;100.00;100410.75;1737734;82;21019;-86
2022/05/18 05:58:27;;;;;;;4.45;3.02;;;;;;;11.51;100.00;100416.41;1768052;80;21563;-88
2022/05/18 06:00:58;;;;;;;4.80;2.83;;;;;;;11.54;100.00;100415.34;1737992;82;21161;-87
2022/05/18 06:03:27;;;;;;;4.80;2.47;;;;;;;11.56;100.00;100416.87;1772709;80;21073;-87
2022/05/18 06:05:56;;;;;;;3.92;2.33;;;;;;;11.57;100.00;100422.44;1802805;78;21125;-87
2022/05/18 06:08:24;;;;;;;4.33;2.47;;;;;;;11.61;100.00;100425.12;1800437;78;21042;-88
2022/05/18 06:10:52;;;;;;;4.10;2.08;;;;;;;11.65;100.00;100429.61;1802907;79;21112;-87
2022/05/18 06:13:19;;;;;;;2.27;2.08;;;;;;;11.65;100.00;100428.31;1774384;79;21466;-88
2022/05/18 06:15:47;;;;;;;4.20;2.25;;;;;;;11.67;100.00;100431.62;1775880;79;21839;-88
2022/05/18 06:18:15;;;;;;;2.37;2.10;;;;;;;11.73;100.00;100431.60;1772072;79;21538;-89
2022/05/18 06:20:44;;;;;;;3.90;2.00;;;;;;;11.79;100.00;100427.98;1772163;79;21337;-89
2022/05/18 06:23:12;;;;;;;6.00;2.80;;;;;;;11.87;100.00;100437.80;1763856;79;21003;-88
2022/05/18 06:25:39;;;;;;;3.42;2.17;;;;;;;11.93;100.00;100439.07;1704176;80;22044;-88
2022/05/18 06:28:09;;;;;;;5.35;2.67;;;;;;;11.96;100.00;100437.03;1795845;79;21062;-87
2022/05/18 06:30:38;;;;;;;3.55;2.72;;;;;;;12.04;100.00;100435.09;1796740;79;21011;-88
2022/05/18 06:33:07;;;;;;;8.58;3.40;;;;;;;12.14;100.00;100436.44;1765185;79;21014;-86
2022/05/18 06:35:34;;;;;;;7.37;3.90;;;;;;;12.20;100.00;100436.41;1716515;81;21125;-87
2022/05/18 06:38:13;;;;;;;5.80;3.17;;;;;;;12.25;100.00;100441.59;1768330;79;21420;-89
2022/05/18 06:43:29;;;;;;;5.03;2.70;;;;;;;12.46;100.00;100448.08;1697509;83;21049;-88
2022/05/18 06:45:57;;;;;;;3.40;2.45;;;;;;;12.53;100.00;100444.93;1746188;82;21112;-87
2022/05/18 06:48:24;;;;;;;3.42;2.30;;;;;;;12.58;100.00;100445.34;1712839;82;21104;-88
2022/05/18 06:50:53;;;;;;;4.08;1.85;;;;;;;12.62;100.00;100441.53;1697263;83;21555;-87
2022/05/18 06:53:20;;;;;;;3.98;2.40;;;;;;;12.67;100.00;100439.82;1713064;82;21136;-86
2022/05/18 06:55:49;;;;;;;3.20;2.10;;;;;;;12.76;100.00;100438.53;1697386;84;21460;-89
2022/05/18 06:58:18;;;;;;;3.42;2.10;;;;;;;12.89;100.00;100448.74;1712788;82;21128;-89
2022/05/18 07:00:45;;;;;;;2.87;2.20;;;;;;;12.99;100.00;100446.63;1697393;83;21030;-85
2022/05/18 07:03:12;;;;;;;4.70;1.82;;;;;;;13.08;100.00;100440.59;1712920;82;21917;-87
2022/05/18 07:05:39;;;;;;;3.72;1.90;;;;;;;13.18;100.00;100444.52;1697592;83;21658;-87
2022/05/18 07:08:08;;;;;;;4.95;2.05;;;;;;;13.29;100.00;100438.33;1712507;82;21167;-87
2022/05/18 07:10:35;;;;;;;2.47;2.12;;;;;;;13.39;100.00;100443.11;1697325;84;21161;-87
2022/05/18 07:13:04;;;;;;;2.45;2.05;;;;;;;13.48;100.00;100445.38;1712793;82;21026;-86
2022/05/18 07:15:31;;;;;;;3.45;1.90;;;;;;;13.54;100.00;100440.42;1697265;83;21512;-86
2022/05/18 07:17:59;;;;;;;2.40;2.00;;;;;;;13.62;100.00;100444.13;1712608;82;21042;-89
2022/05/18 07:20:27;;;;;;;5.28;2.05;;;;;;;13.67;100.00;100436.67;1697742;83;21063;-91
2022/05/18 07:22:54;;;;;;;2.80;2.10;;;;;;;13.73;99.00;100450.03;1706058;84;21023;-88
2022/05/18 07:25:23;;;;;;;3.50;2.20;;;;;;;13.78;100.00;100447.00;1705901;84;21099;-87
2022/05/18 07:27:51;;;;;;;3.22;2.10;;;;;;;13.87;100.00;100454.48;1709552;82;21145;-88
2022/05/18 07:30:18;;;;;;;2.75;1.70;;;;;;;13.94;97.64;100457.37;1732291;82;21539;-89
2022/05/18 07:32:47;;;;;;;6.33;2.00;;;;;;;14.01;92.84;100453.22;1732037;81;21026;-89
2022/05/18 07:35:14;;;;;;;6.75;2.30;;;;;;;14.09;90.68;100457.27;1732080;81;21073;-89
2022/05/18 07:37:41;;;;;;;5.00;1.90;;;;;;;14.18;90.26;100442.01;1732157;81;21089;-88
2022/05/18 07:40:09;;;;;;;2.72;2.08;;;;;;;14.32;96.45;100439.88;1732235;81;21117;-88
2022/05/18 07:42:38;;;;;;;2.80;2.10;;;;;;;14.50;96.76;100443.89;1731907;81;21548;-87
2022/05/18 07:45:07;;;;;;;2.62;1.72;;;;;;;14.60;75.94;100442.53;1732272;82;21188;-86
2022/05/18 07:47:35;;;;;;;3.72;1.90;;;;;;;14.54;72.93;100441.81;1732236;82;21018;-86
2022/05/18 07:50:04;;;;;;;6.90;1.70;;;;;;;14.44;73.30;100443.14;1732149;82;21022;-86
2022/05/18 07:52:31;;;;;;;4.25;2.02;;;;;;;14.32;72.58;100445.12;1732494;81;21135;-85
2022/05/18 07:54:58;;;;;;;3.25;2.10;;;;;;;14.22;68.47;100447.78;1731931;81;20994;-87
2022/05/18 07:57:26;;;;;;;3.33;2.00;;;;;;;14.11;72.42;100444.86;1732537;81;21542;-86
2022/05/18 07:59:59;;;;;;;2.08;1.82;;;;;;;13.99;70.49;100449.44;1684158;84;21000;-84
2022/05/18 08:02:29;;;;;;;7.37;3.22;;;;;;;13.99;70.20;100445.98;1706438;84;21090;-84
2022/05/18 08:04:56;;;;;;;4.70;2.37;;;;;;;14.06;69.87;100445.75;1706535;84;21159;-85
2022/05/18 08:07:23;;;;;;;4.87;1.50;;;;;;;14.13;62.35;100446.86;1706493;84;21063;-86
2022/05/18 08:15:25;;;;;;;7.58;1.90;;;;;;;14.42;57.97;100452.46;1706268;84;21047;-86
2022/05/18 08:17:53;;;;;;;3.95;1.80;;;;;;;14.50;51.95;100447.83;1706587;84;21881;-85
2022/05/18 08:20:22;;;;;;;2.65;1.60;;;;;;;14.52;52.33;100448.48;1706173;84;21098;-85
2022/05/18 08:22:50;;;;;;;4.58;1.70;;;;;;;14.57;51.29;100447.58;1706092;84;21670;-84
2022/05/18 08:25:18;;;;;;;2.45;1.72;;;;;;;14.67;50.06;100437.88;1732257;82;21054;-85
2022/05/18 08:27:49;;;;;;;1.75;1.55;;;;;;;14.80;52.36;100438.03;1732125;82;21097;-87
2022/05/18 08:30:20;;;;;;;1.92;1.67;;;;;;;14.94;50.98;100438.83;1732058;81;22286;-85
2022/05/18 08:32:50;;;;;;;2.52;1.67;;;;;;;15.02;45.54;100440.73;1732098;81;21121;-84
2022/05/18 08:35:18;;;;;;;3.12;1.90;;;;;;;15.05;47.00;100439.09;1732182;82;21035;-85
2022/05/18 08:37:48;;;;;;;2.42;1.92;;;;;;;15.07;49.28;100439.78;1732020;81;21539;-86
2022/05/18 08:40:30;;;;;;;4.42;1.90;;;;;;;15.13;49.36;100437.88;1751864;79;21047;-85
2022/05/18 08:43:00;;;;;;;4.65;3.15;;;;;;;15.24;48.72;100438.62;1710049;80;21275;-87
2022/05/18 08:45:32;;;;;;;9.95;7.33;;;;;;;15.29;44.23;100433.27;1744332;80;20984;-86
2022/05/18 08:48:32;;;;;;;9.03;6.47;;;;;;;15.34;36.49;100430.67;1759493;80;21611;-86
2022/05/18 08:51:03;;;;;;;;;;;;;;;15.36;39.41;100429.54;1741035;80;21078;-87
2022/05/18 08:53:45;;;;;;;6.75;4.95;;;;;;;15.49;45.38;100425.72;1772474;80;20172;-85
2022/05/18 08:56:23;;;;;;;10.15;5.28;;;;;;;15.56;43.13;100418.88;1798132;79;21809;-87
2022/05/18 08:58:53;;;;;;;8.65;5.10;;;;;;;15.68;44.17;100411.08;1798740;78;21539;-87
2022/05/18 09:01:29;;;;;;;7.37;5.53;;;;;;;15.91;42.27;100418.47;1804903;79;21117;-88
2022/05/18 09:04:21;;;;;;;7.47;5.85;;;;;;;16.13;42.02;100415.81;1781340;79;21511;-87
2022/05/18 09:07:06;;;;;;;6.58;5.58;;;;;;;16.30;43.17;100411.95;1792291;79;21069;-87
2022/05/18 09:10:12;;;;;;;8.80;6.53;;;;;;;16.35;43.79;100403.93;1800388;79;21053;-85
2022/05/18 09:12:43;;;;;;;7.72;5.47;;;;;;;16.45;41.70;100399.04;1797787;79;21003;-86
2022/05/18 09:15:15;;;;;;;8.90;5.50;;;;;;;16.68;42.73;100400.09;1791375;79;21091;-87
2022/05/18 09:17:57;;;;;;;9.13;6.72;;;;;;;16.85;41.39;100390.42;1802483;79;21097;-87
2022/05/18 09:20:35;;;;;;;8.08;6.25;;;;;;;17.08;43.95;100386.37;1756648;79;21086;-86
2022/05/18 09:23:28;;;;;;;9.00;7.70;;;;;;;17.40;44.25;100380.78;1783737;79;21126;-88
2022/05/18 09:26:27;;;;;;;9.30;5.97;;;;;;;17.59;41.09;100390.94;1791641;79;21054;-88
2022/05/18 09:29:12;;;;;;;7.87;5.50;;;;;;;17.48;40.75;100380.27;1804486;79;21062;-87
2022/05/18 09:32:07;;;;;;;8.63;5.35;;;;;;;17.29;39.48;100388.52;1801651;79;21010;-85
2022/05/18 09:35:14;;;;;;;7.78;4.80;;;;;;;17.19;43.57;100389.98;1800995;79;22002;-85
2022/05/18 09:37:53;;;;;;;4.60;3.90;;;;;;;16.99;40.70;100395.57;1779719;79;21321;-87
2022/05/18 09:40:31;;;;;;;4.58;4.08;;;;;;;16.45;42.29;100392.47;1802860;79;21027;-86
2022/05/18 09:43:21;;;;;;;5.78;3.98;;;;;;;16.16;44.31;100383.14;1801685;79;21112;-86
2022/05/18 09:45:56;;;;;;;7.65;4.53;;;;;;;16.22;45.61;100379.91;1796887;79;21029;-88
2022/05/18 09:48:44;;;;;;;6.92;3.70;;;;;;;16.53;46.88;100368.34;1699462;82;21535;-85
2022/05/18 09:51:11;;;;;;;4.60;3.40;;;;;;;16.78;43.57;100370.21;1751397;81;21233;-87
2022/05/18 09:53:41;;;;;;;5.05;3.17;;;;;;;16.90;40.71;100372.84;1757867;80;21579;-85
2022/05/18 09:56:14;;;;;;;4.70;2.72;;;;;;;16.93;43.24;100376.98;1748869;81;21037;-86
2022/05/18 09:58:46;;;;;;;4.92;2.87;;;;;;;17.09;40.42;100380.94;1742534;79;20995;-86
2022/05/18 10:07:34;;;;;;;3.85;2.17;;;;;;;16.58;40.44;100381.00;1746914;81;21018;-86
2022/05/18 10:10:15;;;;;;;3.17;2.30;;;;;;;16.20;40.42;100383.98;1737065;82;21095;-88
2022/05/18 10:12:59;;;;;;;2.72;2.30;;;;;;;15.94;44.72;100380.09;1721004;81;21077;-85
2022/05/18 10:15:41;;;;;;;7.70;2.70;;;;;;;16.23;44.78;100374.48;1722602;82;21073;-86
2022/05/18 10:18:48;;;;;;;4.37;2.30;;;;;;;16.70;45.34;100381.52;1725781;81;21173;-87
2022/05/18 10:21:50;;;;;;;4.70;2.37;;;;;;;17.05;45.28;100369.59;1737134;81;21565;-88
2022/05/18 10:24:42;;;;;;;4.40;2.35;;;;;;;17.33;43.09;100370.92;1729464;80;21045;-86
2022/05/18 10:27:18;;;;;;;;;;;;;;;17.49;40.77;100366.63;1729100;81;21083;-85
2022/05/18 10:30:12;;;;;;;3.37;2.30;;;;;;;17.37;38.56;100369.26;1744509;80;20158;-88
2022/05/18 10:33:10;;;;;;;4.75;2.42;;;;;;;17.28;39.24;100371.89;1695695;83;21138;-86
2022/05/18 10:35:48;;;;;;;3.10;2.02;;;;;;;17.42;44.19;100361.70;1728287;80;21089;-87
2022/05/18 10:38:27;;;;;;;5.33;1.95;;;;;;;17.68;40.84;100376.45;1779222;79;21075;-87
2022/05/18 10:41:11;;;;;;;2.37;1.80;;;;;;;17.55;41.51;100360.69;1794581;78;21498;-87
2022/05/18 10:43:47;;;;;;;2.72;1.87;;;;;;;16.94;39.08;100385.20;1773761;79;21047;-87
2022/05/18 10:46:42;;;;;;;5.00;2.27;;;;;;;16.29;40.64;100384.86;1782106;77;21141;-87
2022/05/18 10:49:27;;;;;;;3.00;1.80;;;;;;;15.84;41.00;100384.62;1787521;78;21011;-87
2022/05/18 10:51:54;;;;;;;1.60;1.42;;;;;;;15.54;41.72;100387.52;1756298;79;20983;-86
2022/05/18 10:54:28;;;;;;;4.40;1.80;;;;;;;15.42;43.29;100392.70;1753998;79;21504;-87
2022/05/18 10:57:15;;;;;;;3.83;1.80;;;;;;;15.30;40.82;100391.61;1786444;79;21042;-86
2022/05/18 10:59:57;;;;;;;2.98;1.75;;;;;;;15.29;43.79;100390.46;1787206;79;21109;-86
2022/05/18 11:02:53;;;;;;;3.62;1.57;;;;;;;15.31;42.94;100383.27;1785208;78;21079;-86
2022/05/18 11:05:38;;;;;;;2.75;1.77;;;;;;;15.51;46.38;100381.77;1789324;79;21074;-87
2022/05/18 11:08:14;;;;;;;3.25;1.47;;;;;;;15.91;47.16;100387.80;1793326;78;21036;-87
2022/05/18 11:10:56;;;;;;;1.80;1.60;;;;;;;16.12;46.80;100390.52;1770080;79;20991;-86
2022/05/18 11:13:26;;;;;;;;;;;;;;;16.26;47.29;100387.80;1750950;80;21154;-86
2022/05/18 11:16:05;;;;;;;2.87;2.00;;;;;;;16.44;43.36;100386.88;1784010;79;20194;-86
2022/05/18 11:51:41;;;;;;;1.70;1.60;;;;;;;16.72;41.81;100386.13;1715643;81;21093;-87
2022/05/18 11:54:29;;;;;;;3.37;1.70;;;;;;;16.71;38.17;100390.55;1727884;81;21125;-86
2022/05/18 11:57:20;;;;;;;3.15;1.80;;;;;;;16.96;39.07;100387.19;1701829;83;21026;-86
2022/05/18 12:00:08;;;;;;;2.77;2.10;;;;;;;17.20;37.32;100394.26;1722227;82;21065;-86
2022/05/18 12:03:08;;;;;;;2.30;1.80;;;;;;;17.29;36.78;100393.78;1737383;81;21053;-86
2022/05/18 12:05:50;;;;;;;3.55;1.70;;;;;;;17.40;40.28;100392.63;1791982;79;21911;-85
2022/05/18 12:08:50;;;;;;;3.83;1.90;;;;;;;17.45;40.75;100390.30;1768882;79;21055;-86
2022/05/18 12:11:37;;;;;;;3.55;1.87;;;;;;;17.30;39.17;100393.61;1791005;79;21020;-88
2022/05/18 12:14:30;;;;;;;6.35;1.85;;;;;;;17.32;40.47;100383.75;1773318;79;20989;-85
2022/05/18 12:17:05;;;;;;;4.15;2.20;;;;;;;17.31;36.66;100392.63;1785882;79;21036;-86
2022/05/18 12:19:58;;;;;;;5.00;1.65;;;;;;;17.31;38.70;100399.20;1788683;79;21807;-85
2022/05/18 12:22:31;;;;;;;2.87;1.62;;;;;;;17.43;41.22;100394.91;1776074;79;21533;-87
2022/05/18 12:25:00;;;;;;;1.60;1.50;;;;;;;17.58;41.25;100380.11;1782795;79;21000;-86
2022/05/18 12:27:30;;;;;;;3.72;2.02;;;;;;;17.79;40.16;100386.13;1788318;79;21533;-84
2022/05/18 12:30:05;;;;;;;2.35;1.75;;;;;;;17.74;38.40;100386.33;1777575;79;21114;-84
2022/05/18 12:32:34;;;;;;;4.17;1.98;;;;;;;17.62;38.77;100389.30;1801266;79;21245;-84
2022/05/18 12:35:15;;;;;;;4.05;1.80;;;;;;;17.71;39.27;100384.02;1772323;78;21022;-86
2022/05/18 12:38:14;;;;;;;3.45;1.57;;;;;;;17.79;38.10;100385.31;1790392;79;21015;-86